Time;durP1;ratioP1;P1;durP2;ratioP2;P2;SDS_P1;SDS_P2;PMS_P1;PMS_P2;Temp;Humidity;BMP_temperature;BMP_pressure;BME280_temperature;BME280_humidity;BME280_pressure;Samples;Min_cycle;Max_cycle;Signal;HPM_P1;HPM_P2
2023/08/09 00:00:59;;;;;;;3.28;0.80;;;;;;;;;;5032445;28;20452;-74
2023/08/09 00:03:25;;;;;;;2.67;0.80;;;;;;;;;;5032499;28;20080;-74
2023/08/09 00:05:51;;;;;;;6.60;0.90;;;;;;;;;;5043700;28;20024;-74
2023/08/09 00:08:17;;;;;;;4.95;0.88;;;;;;;;;;5052322;28;20021;-74
2023/08/09 00:10:43;;;;;;;4.03;0.90;;;;;;;;;;5052283;28;20056;-74
2023/08/09 00:13:09;;;;;;;4.15;0.70;;;;;;;;;;5052254;28;20049;-74
2023/08/09 00:15:35;;;;;;;2.70;0.60;;;;;;;;;;5052166;28;20029;-74
2023/08/09 00:18:02;;;;;;;5.57;1.05;;;;;;;;;;5052136;28;20021;-74
2023/08/09 00:20:28;;;;;;;3.70;0.70;;;;;;;;;;5052145;28;20065;-74
2023/08/09 00:22:54;;;;;;;2.35;0.82;;;;;;;;;;5051663;28;20075;-74
2023/08/09 00:25:21;;;;;;;3.00;0.90;;;;;;;;;;5052064;28;20053;-74
2023/08/09 00:27:47;;;;;;;2.03;0.77;;;;;;;;;;5052464;28;20021;-74
2023/08/09 00:30:13;;;;;;;3.33;0.82;;;;;;;;;;5051988;28;20388;-73
2023/08/09 00:32:40;;;;;;;2.40;0.80;;;;;;;;;;5052326;28;20021;-74
2023/08/09 00:35:06;;;;;;;2.05;0.70;;;;;;;;;;5052047;28;20024;-73
2023/08/09 00:37:32;;;;;;;3.03;0.77;;;;;;;;;;5052012;28;20036;-74
2023/08/09 00:39:59;;;;;;;3.33;0.70;;;;;;;;;;5052154;28;20041;-73
2023/08/09 00:42:25;;;;;;;2.20;0.90;;;;;;;;;;5052112;28;20018;-74
2023/08/09 00:44:51;;;;;;;1.50;0.80;;;;;;;;;;5051966;28;20028;-74
2023/08/09 00:47:17;;;;;;;1.15;0.77;;;;;;;;;;5051856;28;20013;-74
2023/08/09 00:49:43;;;;;;;2.05;0.82;;;;;;;;;;5055497;28;20025;-73
2023/08/09 00:52:10;;;;;;;1.75;0.73;;;;;;;;;;5055772;28;20020;-74
2023/08/09 00:54:39;;;;;;;2.95;0.82;;;;;;;;;;5055774;28;20460;-73
2023/08/09 00:57:05;;;;;;;3.13;0.95;;;;;;;;;;5055987;28;20467;-74
2023/08/09 00:59:31;;;;;;;2.63;0.90;;;;;;;;;;5055567;28;20044;-74
2023/08/09 01:01:57;;;;;;;4.40;1.30;;;;;;;;;;5055572;28;20025;-73
2023/08/09 01:04:23;;;;;;;2.58;1.10;;;;;;;;;;5055677;28;20025;-73
2023/08/09 01:06:56;;;;;;;1.63;0.88;;;;;;;;;;5055515;28;20078;-73
2023/08/09 01:09:39;;;;;;;4.75;1.08;;;;;;;;;;5054769;28;20025;-74
2023/08/09 01:12:12;;;;;;;3.55;0.85;;;;;;;;;;5055477;28;20052;-74
2023/08/09 01:14:39;;;;;;;4.43;1.25;;;;;;;;;;5055336;28;20037;-73
2023/08/09 01:17:06;;;;;;;2.72;0.90;;;;;;;;;;5044365;28;20044;-74
2023/08/09 01:19:35;;;;;;;2.08;0.95;;;;;;;;;;5040118;28;20068;-74
2023/08/09 01:22:13;;;;;;;2.50;0.88;;;;;;;;;;5055330;28;20025;-74
2023/08/09 01:24:40;;;;;;;3.55;1.10;;;;;;;;;;5050634;28;20061;-73
2023/08/09 01:27:06;;;;;;;2.55;1.00;;;;;;;;;;5035334;28;20033;-74
2023/08/09 01:29:32;;;;;;;3.08;1.00;;;;;;;;;;5038966;28;20033;-73
2023/08/09 01:31:58;;;;;;;3.60;0.70;;;;;;;;;;5055041;28;20029;-73
2023/08/09 01:34:24;;;;;;;3.45;0.90;;;;;;;;;;5054926;28;20418;-73
2023/08/09 01:36:51;;;;;;;1.60;0.88;;;;;;;;;;5054960;28;20124;-73
2023/08/09 01:39:20;;;;;;;2.45;0.80;;;;;;;;;;5054938;28;20341;-73
2023/08/09 01:41:48;;;;;;;1.63;0.80;;;;;;;;;;5054879;28;20032;-74
2023/08/09 01:44:14;;;;;;;1.60;0.85;;;;;;;;;;5055075;28;20024;-73
2023/08/09 01:46:40;;;;;;;3.08;0.70;;;;;;;;;;5054802;28;20028;-73
2023/08/09 01:49:09;;;;;;;4.40;0.63;;;;;;;;;;5055116;28;20349;-74
2023/08/09 01:51:36;;;;;;;2.83;0.70;;;;;;;;;;5054692;28;20021;-73
2023/08/09 01:54:02;;;;;;;2.45;1.00;;;;;;;;;;5054721;28;20021;-73
2023/08/09 01:56:28;;;;;;;0.95;0.73;;;;;;;;;;5054885;28;20040;-73
2023/08/09 01:58:54;;;;;;;1.60;0.70;;;;;;;;;;5054526;28;20040;-74
2023/08/09 02:01:20;;;;;;;3.00;0.70;;;;;;;;;;5054161;28;20021;-74
2023/08/09 02:03:46;;;;;;;2.97;0.90;;;;;;;;;;5054519;28;20031;-74
2023/08/09 02:06:12;;;;;;;1.80;0.77;;;;;;;;;;5054504;28;20356;-74
2023/08/09 02:08:38;;;;;;;3.05;0.80;;;;;;;;;;5054357;28;20033;-73
2023/08/09 02:11:04;;;;;;;2.60;1.10;;;;;;;;;;5054724;28;20436;-74
2023/08/09 02:13:30;;;;;;;2.33;0.98;;;;;;;;;;5054302;28;20525;-74
2023/08/09 02:15:57;;;;;;;2.05;0.82;;;;;;;;;;5054277;28;20025;-74
2023/08/09 02:18:23;;;;;;;2.03;0.80;;;;;;;;;;5053985;28;20083;-73
2023/08/09 02:20:49;;;;;;;3.63;0.90;;;;;;;;;;5054472;28;20040;-74
2023/08/09 02:23:15;;;;;;;3.30;1.05;;;;;;;;;;5053846;28;20049;-74
2023/08/09 02:25:41;;;;;;;2.65;0.75;;;;;;;;;;5054365;28;20103;-74
2023/08/09 02:28:08;;;;;;;3.20;1.33;;;;;;;;;;5054335;28;20109;-73
2023/08/09 02:30:34;;;;;;;2.35;0.80;;;;;;;;;;5054216;28;20460;-74
2023/08/09 02:33:00;;;;;;;1.50;0.80;;;;;;;;;;5053963;28;20056;-73
2023/08/09 02:35:26;;;;;;;2.88;1.17;;;;;;;;;;5053728;28;20059;-74
2023/08/09 02:37:52;;;;;;;4.53;0.98;;;;;;;;;;5053907;28;20036;-74
2023/08/09 02:40:18;;;;;;;2.42;1.05;;;;;;;;;;5053741;28;20454;-73
2023/08/09 02:42:44;;;;;;;1.90;0.90;;;;;;;;;;5053782;28;20021;-74
2023/08/09 02:45:10;;;;;;;1.05;0.90;;;;;;;;;;5053674;28;20467;-73
2023/08/09 02:47:36;;;;;;;3.38;1.00;;;;;;;;;;5053692;28;20024;-73
2023/08/09 02:50:02;;;;;;;3.45;0.90;;;;;;;;;;5053576;28;20033;-74
2023/08/09 02:52:29;;;;;;;2.95;1.45;;;;;;;;;;5053527;28;20017;-74
2023/08/09 02:54:55;;;;;;;2.70;1.00;;;;;;;;;;5053613;28;20021;-73
2023/08/09 02:57:21;;;;;;;4.95;1.15;;;;;;;;;;5053501;28;20507;-73
2023/08/09 02:59:47;;;;;;;3.03;1.08;;;;;;;;;;5053300;28;20036;-74
2023/08/09 03:02:13;;;;;;;1.73;0.90;;;;;;;;;;5053650;28;20028;-74
2023/08/09 03:04:39;;;;;;;2.42;1.02;;;;;;;;;;5053322;28;20025;-74
2023/08/09 03:07:05;;;;;;;3.47;1.00;;;;;;;;;;5053413;28;20407;-73
2023/08/09 03:09:31;;;;;;;2.13;0.95;;;;;;;;;;5053274;28;20419;-73
2023/08/09 03:11:58;;;;;;;7.45;1.50;;;;;;;;;;5052348;28;20483;-74
2023/08/09 03:14:24;;;;;;;4.93;1.20;;;;;;;;;;5053172;28;20458;-74
2023/08/09 03:16:50;;;;;;;4.18;1.10;;;;;;;;;;5041807;28;20488;-74
2023/08/09 03:19:16;;;;;;;3.45;1.08;;;;;;;;;;5033043;28;20456;-73
2023/08/09 03:21:42;;;;;;;0.85;0.80;;;;;;;;;;5033674;28;20032;-73
2023/08/09 03:24:09;;;;;;;3.25;1.00;;;;;;;;;;5050907;28;20045;-74
2023/08/09 03:26:35;;;;;;;2.30;0.80;;;;;;;;;;5053187;28;20025;-73
2023/08/09 03:29:01;;;;;;;2.10;1.10;;;;;;;;;;5053117;28;20031;-73
2023/08/09 03:31:27;;;;;;;3.38;1.00;;;;;;;;;;5052757;28;20372;-73
2023/08/09 03:33:54;;;;;;;2.03;0.90;;;;;;;;;;5052821;28;20475;-73
2023/08/09 03:36:20;;;;;;;2.25;0.93;;;;;;;;;;5052685;28;20356;-76
2023/08/09 03:38:46;;;;;;;2.05;0.88;;;;;;;;;;5047716;28;20444;-73
2023/08/09 03:41:12;;;;;;;4.70;0.95;;;;;;;;;;5032923;28;20032;-73
2023/08/09 03:43:38;;;;;;;2.45;1.00;;;;;;;;;;5051522;28;20028;-73
2023/08/09 03:46:04;;;;;;;3.60;1.10;;;;;;;;;;5052437;28;20025;-73
2023/08/09 03:48:30;;;;;;;6.07;0.98;;;;;;;;;;5052828;28;20033;-74
2023/08/09 03:50:56;;;;;;;3.17;1.23;;;;;;;;;;5053105;28;20130;-74
2023/08/09 03:53:22;;;;;;;5.35;0.90;;;;;;;;;;5052564;28;20035;-73
2023/08/09 03:55:48;;;;;;;3.22;1.08;;;;;;;;;;5052517;28;20623;-73
2023/08/09 03:58:14;;;;;;;2.90;0.90;;;;;;;;;;5052357;28;20103;-74
2023/08/09 04:00:42;;;;;;;1.55;1.02;;;;;;;;;;5052417;28;20739;-74
2023/08/09 04:03:08;;;;;;;2.25;0.90;;;;;;;;;;5052619;28;20017;-73
2023/08/09 04:05:35;;;;;;;4.88;1.17;;;;;;;;;;5052090;28;20108;-74
2023/08/09 04:08:03;;;;;;;1.75;1.00;;;;;;;;;;5052679;28;20021;-74
2023/08/09 04:10:29;;;;;;;1.48;0.80;;;;;;;;;;5052616;28;20471;-74
2023/08/09 04:12:55;;;;;;;4.25;1.45;;;;;;;;;;5052247;28;20049;-74
2023/08/09 04:15:21;;;;;;;2.30;0.90;;;;;;;;;;5052289;28;20056;-74
2023/08/09 04:17:48;;;;;;;2.05;1.13;;;;;;;;;;5046437;28;20025;-74
2023/08/09 04:20:16;;;;;;;2.05;0.80;;;;;;;;;;5032493;28;20056;-74
2023/08/09 04:22:42;;;;;;;2.72;0.90;;;;;;;;;;5031972;28;20112;-74
2023/08/09 04:25:10;;;;;;;3.88;1.08;;;;;;;;;;5038950;28;20104;-74
2023/08/09 04:27:36;;;;;;;4.63;1.17;;;;;;;;;;5038975;28;20017;-74
2023/08/09 04:30:04;;;;;;;3.40;1.10;;;;;;;;;;5038736;28;20036;-74
2023/08/09 04:32:30;;;;;;;3.90;1.30;;;;;;;;;;5038966;28;20465;-74
2023/08/09 04:34:55;;;;;;;4.00;1.23;;;;;;;;;;5038731;28;20145;-74
2023/08/09 04:37:23;;;;;;;4.65;1.45;;;;;;;;;;5038733;28;20036;-74
2023/08/09 04:39:49;;;;;;;2.33;0.98;;;;;;;;;;5038931;28;20041;-74
2023/08/09 04:42:16;;;;;;;1.48;1.20;;;;;;;;;;5045849;28;20036;-74
2023/08/09 04:44:43;;;;;;;2.75;1.17;;;;;;;;;;5058623;28;20056;-74
2023/08/09 04:47:09;;;;;;;4.60;1.23;;;;;;;;;;5058898;28;20111;-74
2023/08/09 04:49:35;;;;;;;3.08;1.00;;;;;;;;;;5058828;28;20029;-74
2023/08/09 04:52:01;;;;;;;3.03;1.30;;;;;;;;;;5058768;28;20479;-74
2023/08/09 04:54:28;;;;;;;3.65;1.35;;;;;;;;;;5058514;28;20495;-74
2023/08/09 04:56:54;;;;;;;4.07;1.20;;;;;;;;;;5058476;28;20029;-74
2023/08/09 04:59:19;;;;;;;2.53;1.10;;;;;;;;;;5058481;28;20041;-74
2023/08/09 05:01:46;;;;;;;3.72;1.25;;;;;;;;;;5058467;28;20609;-74
2023/08/09 05:04:12;;;;;;;3.08;1.00;;;;;;;;;;5058705;28;20040;-74
2023/08/09 05:06:39;;;;;;;5.15;1.23;;;;;;;;;;5058425;28;20021;-74
2023/08/09 05:09:06;;;;;;;3.55;1.40;;;;;;;;;;5058772;28;20126;-74
2023/08/09 05:11:32;;;;;;;5.10;1.50;;;;;;;;;;5058422;28;20021;-74
2023/08/09 05:13:58;;;;;;;2.20;1.30;;;;;;;;;;5058357;28;20020;-74
2023/08/09 05:16:25;;;;;;;3.47;1.33;;;;;;;;;;5058340;28;20452;-74
2023/08/09 05:18:51;;;;;;;2.30;1.13;;;;;;;;;;5058581;28;20040;-74
2023/08/09 05:21:18;;;;;;;7.85;1.55;;;;;;;;;;5058316;28;20053;-74
2023/08/09 05:23:44;;;;;;;2.20;1.40;;;;;;;;;;5058187;28;20081;-74
2023/08/09 05:26:10;;;;;;;6.75;1.67;;;;;;;;;;5058214;28;20041;-74
2023/08/09 05:28:36;;;;;;;3.65;1.80;;;;;;;;;;5058171;28;20027;-74
2023/08/09 05:31:02;;;;;;;3.58;1.60;;;;;;;;;;5058314;28;20372;-74
2023/08/09 05:33:28;;;;;;;2.47;1.23;;;;;;;;;;5058237;28;20440;-74
2023/08/09 05:35:54;;;;;;;3.20;1.35;;;;;;;;;;5054449;28;20037;-74
2023/08/09 05:38:20;;;;;;;4.93;1.33;;;;;;;;;;5055063;28;20540;-75
2023/08/09 05:40:46;;;;;;;2.55;0.95;;;;;;;;;;5054822;28;20033;-75
2023/08/09 05:43:12;;;;;;;1.70;1.00;;;;;;;;;;5054915;28;20024;-75
2023/08/09 05:45:38;;;;;;;2.17;0.80;;;;;;;;;;5054683;28;20045;-75
2023/08/09 05:48:04;;;;;;;2.85;0.93;;;;;;;;;;5054749;28;20025;-75
2023/08/09 05:50:30;;;;;;;1.95;0.80;;;;;;;;;;5054681;28;20029;-75
2023/08/09 05:52:56;;;;;;;3.95;0.82;;;;;;;;;;5055020;28;20444;-75
2023/08/09 05:55:23;;;;;;;1.20;0.70;;;;;;;;;;5054699;28;20029;-75
2023/08/09 05:57:49;;;;;;;1.60;0.90;;;;;;;;;;5054902;28;20040;-75
2023/08/09 06:00:15;;;;;;;2.35;0.73;;;;;;;;;;5054453;28;20037;-75
2023/08/09 06:02:43;;;;;;;3.17;0.75;;;;;;;;;;5054442;28;20098;-75
2023/08/09 06:05:15;;;;;;;2.35;0.70;;;;;;;;;;5054393;28;20025;-75
2023/08/09 06:07:41;;;;;;;1.95;0.90;;;;;;;;;;5054514;28;20017;-75
2023/08/09 06:10:08;;;;;;;4.20;1.05;;;;;;;;;;5054431;28;20393;-75
2023/08/09 06:12:34;;;;;;;1.15;0.70;;;;;;;;;;5054220;28;20565;-75
2023/08/09 06:15:00;;;;;;;1.50;1.13;;;;;;;;;;5054530;28;20155;-76
2023/08/09 06:17:27;;;;;;;4.53;0.80;;;;;;;;;;5051086;28;20053;-76
2023/08/09 06:19:53;;;;;;;3.30;0.88;;;;;;;;;;5034420;28;20495;-76
2023/08/09 06:22:19;;;;;;;2.67;0.80;;;;;;;;;;5037117;28;20020;-75
2023/08/09 06:24:45;;;;;;;2.05;0.68;;;;;;;;;;5054201;28;20055;-76
2023/08/09 06:27:11;;;;;;;1.25;0.55;;;;;;;;;;5053885;28;20026;-75
2023/08/09 06:29:37;;;;;;;3.13;0.90;;;;;;;;;;5054059;28;20051;-75
2023/08/09 06:32:03;;;;;;;2.67;0.65;;;;;;;;;;5053965;28;20017;-76
2023/08/09 06:34:29;;;;;;;2.83;1.02;;;;;;;;;;5053889;28;20380;-76
2023/08/09 06:37:01;;;;;;;2.40;0.80;;;;;;;;;;5053926;28;20086;-76
2023/08/09 06:39:27;;;;;;;2.30;0.80;;;;;;;;;;5053788;28;20082;-76
2023/08/09 06:41:53;;;;;;;1.85;0.75;;;;;;;;;;5054109;28;20024;-75
2023/08/09 06:44:19;;;;;;;3.85;0.73;;;;;;;;;;5054087;28;20456;-76
2023/08/09 06:46:45;;;;;;;3.80;0.70;;;;;;;;;;5053581;28;20029;-76
2023/08/09 06:49:12;;;;;;;1.98;0.63;;;;;;;;;;5053937;28;20040;-76
2023/08/09 06:51:38;;;;;;;2.17;0.80;;;;;;;;;;5053484;28;20029;-76
2023/08/09 06:54:04;;;;;;;1.58;0.90;;;;;;;;;;5053779;28;20029;-76
2023/08/09 06:56:30;;;;;;;2.30;0.80;;;;;;;;;;5054058;28;20109;-76
2023/08/09 06:58:56;;;;;;;2.33;0.70;;;;;;;;;;5053749;28;20040;-75
2023/08/09 07:01:22;;;;;;;1.15;0.73;;;;;;;;;;5053352;28;20021;-76
2023/08/09 07:03:50;;;;;;;3.05;0.60;;;;;;;;;;5053489;28;20021;-76
2023/08/09 07:06:16;;;;;;;1.35;0.68;;;;;;;;;;5053393;28;20365;-76
2023/08/09 07:08:42;;;;;;;1.30;0.70;;;;;;;;;;5053628;28;20078;-76
2023/08/09 07:11:08;;;;;;;1.25;0.60;;;;;;;;;;5053302;28;20021;-76
2023/08/09 07:13:35;;;;;;;2.67;0.60;;;;;;;;;;5053222;28;20025;-76
2023/08/09 07:16:01;;;;;;;2.85;0.98;;;;;;;;;;5053374;28;20429;-76
2023/08/09 07:18:27;;;;;;;1.33;0.65;;;;;;;;;;5053156;28;20017;-76
2023/08/09 07:20:53;;;;;;;1.40;0.73;;;;;;;;;;5053309;28;20132;-75
2023/08/09 07:23:19;;;;;;;1.63;0.80;;;;;;;;;;5051674;28;20136;-76
2023/08/09 07:25:45;;;;;;;1.75;0.60;;;;;;;;;;5053279;28;20021;-76
2023/08/09 07:28:12;;;;;;;1.60;0.70;;;;;;;;;;5053275;28;20025;-76
2023/08/09 07:30:39;;;;;;;1.05;0.68;;;;;;;;;;5053122;28;20029;-76
2023/08/09 07:33:06;;;;;;;1.10;0.68;;;;;;;;;;5052952;28;20083;-76
2023/08/09 07:35:32;;;;;;;1.92;0.90;;;;;;;;;;5052975;28;20364;-76
2023/08/09 07:37:58;;;;;;;2.15;0.50;;;;;;;;;;5052809;28;20134;-76
2023/08/09 07:40:24;;;;;;;2.97;0.68;;;;;;;;;;5052516;28;20083;-76
2023/08/09 07:42:50;;;;;;;3.45;0.70;;;;;;;;;;5040615;28;20033;-76
2023/08/09 07:45:16;;;;;;;1.08;0.70;;;;;;;;;;5037857;28;20025;-76
2023/08/09 07:47:42;;;;;;;0.93;0.73;;;;;;;;;;5052527;28;20078;-76
2023/08/09 07:50:08;;;;;;;2.00;0.77;;;;;;;;;;5052649;28;20025;-76
2023/08/09 07:52:35;;;;;;;1.45;0.50;;;;;;;;;;5052500;28;20083;-76
2023/08/09 07:55:01;;;;;;;2.35;0.75;;;;;;;;;;5052590;28;20017;-76
2023/08/09 07:57:27;;;;;;;0.50;0.50;;;;;;;;;;5051970;28;20017;-76
2023/08/09 07:59:53;;;;;;;1.45;0.70;;;;;;;;;;5051013;28;20103;-76
2023/08/09 08:02:19;;;;;;;2.25;0.63;;;;;;;;;;5052703;28;20052;-76
2023/08/09 08:04:45;;;;;;;0.98;0.70;;;;;;;;;;5052386;28;20021;-76
2023/08/09 08:07:11;;;;;;;0.93;0.68;;;;;;;;;;5052327;28;20025;-75
2023/08/09 08:09:41;;;;;;;2.22;0.60;;;;;;;;;;5052294;28;20082;-76
2023/08/09 08:12:08;;;;;;;1.10;0.50;;;;;;;;;;5052518;28;20024;-76
2023/08/09 08:14:34;;;;;;;0.75;0.70;;;;;;;;;;5052191;28;20512;-76
2023/08/09 08:17:00;;;;;;;0.95;0.70;;;;;;;;;;5052153;28;20078;-76
2023/08/09 08:19:26;;;;;;;1.33;0.70;;;;;;;;;;5032480;28;20033;-76
2023/08/09 08:21:52;;;;;;;1.90;0.70;;;;;;;;;;5032346;28;20036;-75
2023/08/09 08:24:18;;;;;;;1.60;0.60;;;;;;;;;;5051156;28;20053;-76
2023/08/09 08:26:44;;;;;;;1.58;0.60;;;;;;;;;;5052039;28;20035;-76
2023/08/09 08:29:10;;;;;;;0.65;0.45;;;;;;;;;;5052023;28;20456;-76
2023/08/09 08:31:36;;;;;;;1.48;0.70;;;;;;;;;;5052040;28;20029;-75
2023/08/09 08:34:03;;;;;;;1.48;0.52;;;;;;;;;;5052039;28;20032;-75
2023/08/09 08:36:29;;;;;;;0.75;0.50;;;;;;;;;;5038914;28;20024;-75
2023/08/09 08:38:55;;;;;;;1.33;0.57;;;;;;;;;;5032010;28;20037;-76
2023/08/09 08:41:21;;;;;;;1.65;0.80;;;;;;;;;;5032382;28;20057;-76
2023/08/09 08:43:47;;;;;;;1.85;0.60;;;;;;;;;;5038959;28;20086;-76
2023/08/09 08:46:17;;;;;;;2.40;0.90;;;;;;;;;;5052260;28;20021;-75
2023/08/09 08:48:47;;;;;;;3.00;0.90;;;;;;;;;;5052191;28;20072;-76
2023/08/09 08:51:14;;;;;;;2.08;0.90;;;;;;;;;;5051830;28;20166;-75
2023/08/09 08:53:40;;;;;;;1.33;0.60;;;;;;;;;;5051894;28;20032;-75
2023/08/09 08:56:07;;;;;;;1.05;0.70;;;;;;;;;;5051835;28;20407;-75
2023/08/09 08:58:33;;;;;;;1.45;0.50;;;;;;;;;;5051686;28;20082;-76
2023/08/09 09:00:59;;;;;;;1.70;0.60;;;;;;;;;;5051669;28;20025;-75
2023/08/09 09:03:25;;;;;;;0.95;0.55;;;;;;;;;;5051792;28;20017;-76
2023/08/09 09:05:51;;;;;;;2.65;0.60;;;;;;;;;;5051997;28;20025;-75
2023/08/09 09:08:18;;;;;;;2.30;0.68;;;;;;;;;;5051802;28;20058;-75
2023/08/09 09:10:45;;;;;;;1.48;0.70;;;;;;;;;;5053466;28;20025;-75
2023/08/09 09:13:23;;;;;;;0.93;0.60;;;;;;;;;;5055799;28;20025;-75
2023/08/09 09:15:49;;;;;;;1.20;0.50;;;;;;;;;;5055692;28;20155;-75
2023/08/09 09:18:15;;;;;;;2.00;0.60;;;;;;;;;;5045454;28;20049;-75
2023/08/09 09:20:42;;;;;;;1.30;0.70;;;;;;;;;;5035400;28;20111;-75
2023/08/09 09:23:08;;;;;;;0.90;0.40;;;;;;;;;;5034259;28;20049;-75
2023/08/09 09:25:34;;;;;;;1.00;0.57;;;;;;;;;;5035367;28;20037;-75
2023/08/09 09:28:00;;;;;;;2.75;0.70;;;;;;;;;;5035571;28;20021;-75
2023/08/09 09:30:31;;;;;;;1.27;0.90;;;;;;;;;;5035243;28;20031;-74
2023/08/09 09:33:03;;;;;;;1.40;0.68;;;;;;;;;;5035319;28;20025;-75
2023/08/09 09:35:32;;;;;;;0.73;0.68;;;;;;;;;;5053813;28;20025;-75
2023/08/09 09:38:04;;;;;;;;;;;;;;;;;;5055396;28;20104;-75
2023/08/09 09:40:34;;;;;;;1.98;0.70;;;;;;;;;;5055054;28;19913;-75
2023/08/09 09:43:01;;;;;;;2.33;0.82;;;;;;;;;;5055305;28;20644;-75
2023/08/09 09:45:28;;;;;;;1.58;0.80;;;;;;;;;;5054992;28;20032;-75
2023/08/09 09:47:55;;;;;;;1.60;0.60;;;;;;;;;;5054879;28;20021;-75
2023/08/09 09:50:22;;;;;;;2.67;1.05;;;;;;;;;;5054801;28;20107;-75
2023/08/09 09:52:49;;;;;;;1.25;0.70;;;;;;;;;;5054834;28;20021;-75
2023/08/09 09:55:19;;;;;;;3.13;0.80;;;;;;;;;;5054683;28;20025;-75
2023/08/09 09:57:46;;;;;;;1.15;1.02;;;;;;;;;;5052933;28;20061;-75
2023/08/09 10:00:14;;;;;;;1.48;0.90;;;;;;;;;;5034608;28;20542;-75
2023/08/09 10:02:48;;;;;;;2.67;0.80;;;;;;;;;;5036678;28;20057;-75
2023/08/09 10:05:18;;;;;;;46.95;23.50;;;;;;;;;;5054550;28;20032;-75
2023/08/09 10:07:45;;;;;;;3.22;1.05;;;;;;;;;;5054521;28;20028;-75
2023/08/09 10:10:12;;;;;;;2.60;0.70;;;;;;;;;;5054491;28;20037;-75
2023/08/09 10:12:41;;;;;;;2.63;0.77;;;;;;;;;;5054477;28;20695;-75
2023/08/09 10:15:08;;;;;;;1.20;0.82;;;;;;;;;;5054601;28;20021;-75
2023/08/09 10:17:35;;;;;;;1.42;1.00;;;;;;;;;;5054283;28;20045;-75
2023/08/09 10:20:02;;;;;;;2.15;0.95;;;;;;;;;;5054177;28;20060;-75
2023/08/09 10:22:30;;;;;;;3.10;1.08;;;;;;;;;;5053715;28;20013;-74
2023/08/09 10:25:06;;;;;;;2.47;0.88;;;;;;;;;;5052863;28;20083;-74
2023/08/09 10:27:53;;;;;;;3.05;1.13;;;;;;;;;;5054140;28;20032;-75
2023/08/09 10:30:20;;;;;;;2.08;0.85;;;;;;;;;;5054211;28;20021;-75
2023/08/09 10:32:50;;;;;;;3.92;1.10;;;;;;;;;;5054004;28;20444;-75
2023/08/09 10:35:17;;;;;;;1.90;1.00;;;;;;;;;;5053908;28;20376;-75
2023/08/09 10:37:45;;;;;;;3.88;0.90;;;;;;;;;;5054171;28;20052;-75
2023/08/09 10:40:12;;;;;;;1.50;0.90;;;;;;;;;;5053779;28;20029;-75
2023/08/09 10:42:38;;;;;;;3.10;0.98;;;;;;;;;;5053733;28;20032;-74
2023/08/09 10:45:04;;;;;;;3.70;1.13;;;;;;;;;;5053711;28;20025;-75
2023/08/09 10:47:31;;;;;;;1.10;0.90;;;;;;;;;;5053603;28;20033;-75
2023/08/09 10:50:01;;;;;;;2.63;1.25;;;;;;;;;;5053739;28;20512;-75
2023/08/09 10:52:30;;;;;;;2.10;0.98;;;;;;;;;;5053683;28;20101;-75
2023/08/09 10:55:15;;;;;;;1.98;1.15;;;;;;;;;;5053564;28;20036;-75
2023/08/09 10:57:42;;;;;;;4.03;1.40;;;;;;;;;;5053466;28;20533;-75
2023/08/09 11:00:12;;;;;;;3.30;1.45;;;;;;;;;;5053337;28;20020;-75
2023/08/09 11:02:45;;;;;;;5.35;1.40;;;;;;;;;;5052645;28;20028;-75
2023/08/09 11:05:12;;;;;;;2.85;1.40;;;;;;;;;;5053535;28;20032;-75
2023/08/09 11:07:42;;;;;;;2.35;1.35;;;;;;;;;;5053357;28;20495;-75
2023/08/09 11:10:08;;;;;;;4.22;1.17;;;;;;;;;;5053351;28;20029;-75
2023/08/09 11:12:35;;;;;;;3.60;1.10;;;;;;;;;;5053413;28;20028;-75
2023/08/09 11:15:01;;;;;;;5.68;1.50;;;;;;;;;;5053205;28;20053;-75
2023/08/09 11:17:27;;;;;;;3.50;1.00;;;;;;;;;;5053259;28;20392;-75
2023/08/09 11:19:53;;;;;;;3.50;1.25;;;;;;;;;;5053294;28;20029;-75
2023/08/09 11:22:19;;;;;;;4.55;1.30;;;;;;;;;;5053067;28;20086;-75
2023/08/09 11:24:52;;;;;;;2.60;1.05;;;;;;;;;;5051618;28;20053;-75
2023/08/09 11:27:18;;;;;;;3.30;1.00;;;;;;;;;;5053040;28;20426;-74
2023/08/09 11:29:46;;;;;;;2.38;1.42;;;;;;;;;;5052885;28;20033;-74
2023/08/09 11:32:12;;;;;;;5.40;1.25;;;;;;;;;;5052419;28;20113;-74
2023/08/09 11:34:38;;;;;;;4.25;1.33;;;;;;;;;;5052482;28;20108;-74
2023/08/09 11:37:09;;;;;;;5.60;1.60;;;;;;;;;;5048230;28;20112;-74
2023/08/09 11:39:35;;;;;;;4.85;1.30;;;;;;;;;;5033115;28;20135;-74
2023/08/09 11:42:01;;;;;;;3.78;1.48;;;;;;;;;;5051521;28;20036;-75
2023/08/09 11:44:35;;;;;;;3.55;1.33;;;;;;;;;;5052676;28;20472;-74
2023/08/09 11:47:01;;;;;;;3.00;1.30;;;;;;;;;;5052606;28;20371;-75
2023/08/09 11:49:27;;;;;;;2.25;0.90;;;;;;;;;;5052712;28;20029;-74
2023/08/09 11:51:53;;;;;;;3.40;1.45;;;;;;;;;;5052685;28;20036;-74
2023/08/09 11:54:19;;;;;;;4.00;1.05;;;;;;;;;;5052505;28;20029;-74
2023/08/09 11:56:45;;;;;;;5.63;1.15;;;;;;;;;;5052436;28;20040;-74
2023/08/09 11:59:16;;;;;;;2.95;1.30;;;;;;;;;;5052311;28;20033;-74
2023/08/09 12:01:44;;;;;;;3.72;1.33;;;;;;;;;;5052443;28;20061;-75
2023/08/09 12:04:11;;;;;;;5.38;1.13;;;;;;;;;;5052354;28;20106;-74
2023/08/09 12:06:55;;;;;;;3.83;0.93;;;;;;;;;;5052346;28;20338;-74
2023/08/09 12:09:36;;;;;;;5.05;0.90;;;;;;;;;;5052398;28;20100;-74
2023/08/09 12:12:02;;;;;;;4.95;1.48;;;;;;;;;;5052402;28;20033;-74
2023/08/09 12:14:28;;;;;;;5.82;1.30;;;;;;;;;;5032272;28;20033;-74
2023/08/09 12:16:54;;;;;;;7.60;1.70;;;;;;;;;;5032342;28;20469;-75
2023/08/09 12:19:21;;;;;;;4.55;1.15;;;;;;;;;;5051045;28;20033;-74
2023/08/09 12:21:47;;;;;;;3.35;1.30;;;;;;;;;;5052251;28;20080;-74
2023/08/09 12:24:14;;;;;;;6.90;1.50;;;;;;;;;;5050935;28;20053;-75
2023/08/09 12:26:40;;;;;;;4.05;1.27;;;;;;;;;;5052112;28;20029;-74
2023/08/09 12:29:06;;;;;;;3.78;0.98;;;;;;;;;;5052151;28;20037;-74
2023/08/09 12:31:33;;;;;;;8.13;1.48;;;;;;;;;;5051997;28;20088;-74
2023/08/09 12:33:59;;;;;;;3.38;1.48;;;;;;;;;;5052378;28;20029;-74
2023/08/09 12:36:26;;;;;;;6.00;1.70;;;;;;;;;;5052011;28;20087;-74
2023/08/09 12:38:52;;;;;;;3.63;1.52;;;;;;;;;;5052186;28;20027;-74
2023/08/09 12:41:18;;;;;;;3.35;1.13;;;;;;;;;;5051960;28;20025;-74
2023/08/09 12:43:44;;;;;;;5.35;1.40;;;;;;;;;;5052276;28;20021;-74
2023/08/09 12:46:10;;;;;;;6.75;1.80;;;;;;;;;;5056020;28;20048;-74
2023/08/09 12:48:36;;;;;;;4.63;1.17;;;;;;;;;;5055968;28;20048;-74
2023/08/09 12:51:02;;;;;;;3.92;0.88;;;;;;;;;;5055987;28;20041;-74
2023/08/09 12:53:28;;;;;;;3.47;1.00;;;;;;;;;;5056195;28;20453;-74
2023/08/09 12:55:54;;;;;;;5.45;1.30;;;;;;;;;;5055848;28;20400;-74
2023/08/09 12:58:20;;;;;;;4.15;1.10;;;;;;;;;;5055697;28;20029;-74
2023/08/09 13:00:46;;;;;;;5.13;1.48;;;;;;;;;;5055937;28;20036;-74
2023/08/09 13:03:12;;;;;;;4.45;1.25;;;;;;;;;;5055762;28;20032;-74
2023/08/09 13:05:38;;;;;;;3.88;1.23;;;;;;;;;;5055919;28;20025;-74
2023/08/09 13:08:04;;;;;;;3.90;1.52;;;;;;;;;;5055617;28;20129;-74
2023/08/09 13:10:30;;;;;;;3.88;1.10;;;;;;;;;;5055795;28;20051;-74
2023/08/09 13:12:57;;;;;;;2.17;1.02;;;;;;;;;;5055446;28;20360;-74
2023/08/09 13:15:23;;;;;;;4.03;1.48;;;;;;;;;;5055467;28;20384;-73
2023/08/09 13:17:49;;;;;;;3.47;1.40;;;;;;;;;;5055325;28;20540;-74
2023/08/09 13:20:15;;;;;;;8.40;1.63;;;;;;;;;;5042208;28;20120;-74
2023/08/09 13:22:42;;;;;;;3.85;1.08;;;;;;;;;;5041498;28;20021;-74
2023/08/09 13:25:08;;;;;;;4.18;1.58;;;;;;;;;;5055071;28;20053;-75
2023/08/09 13:27:37;;;;;;;4.28;1.38;;;;;;;;;;5055193;28;20078;-75
2023/08/09 13:30:04;;;;;;;3.42;1.10;;;;;;;;;;5055255;28;20075;-75
2023/08/09 13:32:31;;;;;;;4.80;1.13;;;;;;;;;;5055234;28;20025;-75
2023/08/09 13:34:57;;;;;;;3.47;1.17;;;;;;;;;;5055304;28;20053;-75
2023/08/09 13:37:23;;;;;;;4.75;1.30;;;;;;;;;;5054998;28;20033;-75
2023/08/09 13:39:48;;;;;;;4.38;1.60;;;;;;;;;;5054953;28;20399;-75
2023/08/09 13:42:15;;;;;;;4.18;1.30;;;;;;;;;;5055035;28;20029;-75
2023/08/09 13:44:41;;;;;;;5.30;1.30;;;;;;;;;;5055175;28;20021;-75
2023/08/09 13:47:07;;;;;;;3.72;1.33;;;;;;;;;;5054864;28;20418;-74
2023/08/09 13:49:33;;;;;;;4.50;1.20;;;;;;;;;;5054956;28;20029;-75
2023/08/09 13:51:59;;;;;;;3.97;1.23;;;;;;;;;;5054774;28;20070;-75
2023/08/09 13:54:25;;;;;;;2.97;1.40;;;;;;;;;;5054685;28;20028;-75
2023/08/09 13:56:51;;;;;;;4.78;1.67;;;;;;;;;;5053655;28;20021;-75
2023/08/09 13:59:17;;;;;;;4.03;1.50;;;;;;;;;;5054562;28;20033;-75
2023/08/09 14:01:43;;;;;;;4.35;1.40;;;;;;;;;;5054515;28;20082;-74
2023/08/09 14:04:10;;;;;;;2.03;1.00;;;;;;;;;;5054584;28;20053;-74
2023/08/09 14:06:36;;;;;;;5.93;1.40;;;;;;;;;;5054772;28;20025;-74
2023/08/09 14:09:02;;;;;;;5.07;1.30;;;;;;;;;;5054357;28;20025;-74
2023/08/09 14:11:28;;;;;;;4.82;1.27;;;;;;;;;;5054619;28;20025;-74
2023/08/09 14:13:54;;;;;;;4.50;1.23;;;;;;;;;;5054255;28;20040;-74
2023/08/09 14:16:20;;;;;;;5.35;1.60;;;;;;;;;;5054251;28;20036;-74
2023/08/09 14:18:47;;;;;;;8.27;2.10;;;;;;;;;;5054255;28;20025;-74
2023/08/09 14:21:13;;;;;;;6.60;1.25;;;;;;;;;;5054456;28;20033;-74
2023/08/09 14:23:39;;;;;;;4.15;0.98;;;;;;;;;;5052816;28;20037;-74
2023/08/09 14:26:05;;;;;;;4.85;1.42;;;;;;;;;;5054260;28;20361;-74
2023/08/09 14:28:31;;;;;;;5.18;1.20;;;;;;;;;;5054134;28;20029;-74
2023/08/09 14:30:57;;;;;;;3.50;1.25;;;;;;;;;;5054115;28;20036;-74
2023/08/09 14:33:23;;;;;;;6.38;1.40;;;;;;;;;;5054258;28;20025;-74
2023/08/09 14:35:49;;;;;;;6.15;1.40;;;;;;;;;;5054014;28;20025;-74
2023/08/09 14:38:15;;;;;;;4.35;1.15;;;;;;;;;;5053995;28;20036;-74
2023/08/09 14:40:41;;;;;;;3.53;1.23;;;;;;;;;;5053819;28;20506;-74